sensor_id;sensor_type;location;lat;lon;timestamp;pressure;altitude;pressure_sealevel;temperature;humidity
28312;BME280;15572;48.810;9.148;2023-10-31T00:04:37;96546.00;;;11.35;100.00
28312;BME280;15572;48.810;9.148;2023-10-31T00:09:33;96556.81;;;11.35;100.00
28312;BME280;15572;48.810;9.148;2023-10-31T00:14:31;96577.66;;;11.34;100.00
28312;BME280;15572;48.810;9.148;2023-10-31T00:19:28;96598.78;;;11.21;100.00
28312;BME280;15572;48.810;9.148;2023-10-31T00:24:24;96597.84;;;11.27;100.00
28312;BME280;15572;48.810;9.148;2023-10-31T00:29:21;96588.78;;;11.21;100.00
28312;BME280;15572;48.810;9.148;2023-10-31T00:34:19;96594.78;;;11.12;100.00
28312;BME280;15572;48.810;9.148;2023-10-31T00:39:16;96606.94;;;11.09;100.00
28312;BME280;15572;48.810;9.148;2023-10-31T00:44:12;96618.22;;;11.06;100.00
28312;BME280;15572;48.810;9.148;2023-10-31T00:49:09;96604.34;;;11.03;100.00
28312;BME280;15572;48.810;9.148;2023-10-31T00:54:07;96616.94;;;10.97;100.00
28312;BME280;15572;48.810;9.148;2023-10-31T00:59:04;96619.44;;;10.98;100.00
28312;BME280;15572;48.810;9.148;2023-10-31T01:04:00;96625.28;;;10.95;100.00
28312;BME280;15572;48.810;9.148;2023-10-31T01:08:56;96630.97;;;10.94;100.00
28312;BME280;15572;48.810;9.148;2023-10-31T01:13:54;96627.78;;;10.85;100.00
28312;BME280;15572;48.810;9.148;2023-10-31T01:18:51;96614.84;;;10.76;100.00
28312;BME280;15572;48.810;9.148;2023-10-31T01:23:47;96617.41;;;10.71;100.00
28312;BME280;15572;48.810;9.148;2023-10-31T01:28:44;96638.34;;;10.64;100.00
28312;BME280;15572;48.810;9.148;2023-10-31T01:33:42;96653.41;;;10.48;100.00
28312;BME280;15572;48.810;9.148;2023-10-31T01:38:38;96661.50;;;10.36;100.00
28312;BME280;15572;48.810;9.148;2023-10-31T01:43:36;96675.56;;;10.27;100.00
28312;BME280;15572;48.810;9.148;2023-10-31T01:48:33;96680.41;;;10.25;100.00
28312;BME280;15572;48.810;9.148;2023-10-31T01:53:32;96677.56;;;10.20;100.00
28312;BME280;15572;48.810;9.148;2023-10-31T01:58:33;96678.00;;;10.17;100.00
28312;BME280;15572;48.810;9.148;2023-10-31T02:03:30;96691.72;;;10.15;100.00
28312;BME280;15572;48.810;9.148;2023-10-31T02:08:28;96696.34;;;10.14;100.00
28312;BME280;15572;48.810;9.148;2023-10-31T02:13:26;96697.94;;;10.15;100.00
28312;BME280;15572;48.810;9.148;2023-10-31T02:18:22;96706.75;;;10.11;100.00
28312;BME280;15572;48.810;9.148;2023-10-31T02:23:20;96708.88;;;10.09;100.00
28312;BME280;15572;48.810;9.148;2023-10-31T02:28:17;96710.63;;;10.03;100.00
28312;BME280;15572;48.810;9.148;2023-10-31T02:33:13;96721.16;;;9.93;100.00
28312;BME280;15572;48.810;9.148;2023-10-31T02:38:09;96724.66;;;9.94;100.00
28312;BME280;15572;48.810;9.148;2023-10-31T02:43:08;96730.31;;;9.92;100.00
28312;BME280;15572;48.810;9.148;2023-10-31T02:48:04;96719.94;;;9.89;100.00
28312;BME280;15572;48.810;9.148;2023-10-31T02:53:01;96731.22;;;9.86;100.00
28312;BME280;15572;48.810;9.148;2023-10-31T02:57:58;96731.22;;;9.86;100.00
28312;BME280;15572;48.810;9.148;2023-10-31T03:02:56;96742.25;;;9.85;100.00
28312;BME280;15572;48.810;9.148;2023-10-31T03:07:52;96746.53;;;9.92;100.00
28312;BME280;15572;48.810;9.148;2023-10-31T03:12:49;96751.25;;;9.97;100.00
28312;BME280;15572;48.810;9.148;2023-10-31T03:17:45;96760.91;;;10.04;100.00
28312;BME280;15572;48.810;9.148;2023-10-31T03:22:43;96764.69;;;10.03;100.00
28312;BME280;15572;48.810;9.148;2023-10-31T03:27:40;96765.59;;;9.97;100.00
28312;BME280;15572;48.810;9.148;2023-10-31T03:32:36;96767.25;;;9.98;100.00
28312;BME280;15572;48.810;9.148;2023-10-31T03:37:32;96763.47;;;9.99;100.00
28312;BME280;15572;48.810;9.148;2023-10-31T03:42:30;96765.59;;;9.97;100.00
28312;BME280;15572;48.810;9.148;2023-10-31T03:47:27;96780.00;;;9.91;100.00
28312;BME280;15572;48.810;9.148;2023-10-31T03:52:23;96774.69;;;9.85;100.00
28312;BME280;15572;48.810;9.148;2023-10-31T03:57:20;96767.03;;;9.82;100.00
28312;BME280;15572;48.810;9.148;2023-10-31T04:02:17;96780.41;;;9.77;100.00
28312;BME280;15572;48.810;9.148;2023-10-31T04:07:14;96780.63;;;9.75;100.00
28312;BME280;15572;48.810;9.148;2023-10-31T04:12:10;96786.50;;;9.72;100.00
28312;BME280;15572;48.810;9.148;2023-10-31T04:17:07;96796.22;;;9.73;100.00
28312;BME280;15572;48.810;9.148;2023-10-31T04:22:06;96791.78;;;9.79;100.00
28312;BME280;15572;48.810;9.148;2023-10-31T04:27:03;96791.56;;;9.80;100.00
28312;BME280;15572;48.810;9.148;2023-10-31T04:31:59;96804.63;;;9.83;100.00
28312;BME280;15572;48.810;9.148;2023-10-31T04:36:56;96799.84;;;9.85;100.00
28312;BME280;15572;48.810;9.148;2023-10-31T04:41:53;96813.97;;;9.87;100.00
28312;BME280;15572;48.810;9.148;2023-10-31T04:46:50;96813.13;;;9.87;100.00
28312;BME280;15572;48.810;9.148;2023-10-31T04:51:47;96816.81;;;9.92;100.00
28312;BME280;15572;48.810;9.148;2023-10-31T04:56:44;96816.88;;;9.86;100.00
28312;BME280;15572;48.810;9.148;2023-10-31T05:01:48;96815.28;;;9.78;100.00
28312;BME280;15572;48.810;9.148;2023-10-31T05:06:44;96820.94;;;9.77;100.00
28312;BME280;15572;48.810;9.148;2023-10-31T05:11:41;96828.88;;;9.71;100.00
28312;BME280;15572;48.810;9.148;2023-10-31T05:16:42;96838.88;;;9.71;100.00
28312;BME280;15572;48.810;9.148;2023-10-31T05:21:39;96841.19;;;9.67;100.00
28312;BME280;15572;48.810;9.148;2023-10-31T05:26:35;96838.78;;;9.59;100.00
28312;BME280;15572;48.810;9.148;2023-10-31T05:31:32;96832.75;;;9.57;100.00
28312;BME280;15572;48.810;9.148;2023-10-31T05:36:30;96836.13;;;9.53;100.00
28312;BME280;15572;48.810;9.148;2023-10-31T05:41:26;96837.25;;;9.45;100.00
28312;BME280;15572;48.810;9.148;2023-10-31T05:46:23;96845.16;;;9.40;100.00
28312;BME280;15572;48.810;9.148;2023-10-31T05:51:19;96840.22;;;9.37;100.00
28312;BME280;15572;48.810;9.148;2023-10-31T05:56:17;96855.16;;;9.40;100.00
28312;BME280;15572;48.810;9.148;2023-10-31T06:01:14;96879.91;;;9.37;100.00
28312;BME280;15572;48.810;9.148;2023-10-31T06:06:10;96883.06;;;9.34;100.00
28312;BME280;15572;48.810;9.148;2023-10-31T06:11:07;96883.72;;;9.29;100.00
28312;BME280;15572;48.810;9.148;2023-10-31T06:16:06;96876.88;;;9.26;100.00
28312;BME280;15572;48.810;9.148;2023-10-31T06:21:03;96886.97;;;9.38;100.00
28312;BME280;15572;48.810;9.148;2023-10-31T06:26:00;96894.97;;;9.51;100.00
28312;BME280;15572;48.810;9.148;2023-10-31T06:30:56;96892.59;;;9.61;100.00
28312;BME280;15572;48.810;9.148;2023-10-31T06:35:54;96908.50;;;9.69;100.00
28312;BME280;15572;48.810;9.148;2023-10-31T06:40:51;96914.69;;;9.76;100.00
28312;BME280;15572;48.810;9.148;2023-10-31T06:45:47;96935.03;;;9.79;100.00
28312;BME280;15572;48.810;9.148;2023-10-31T06:50:44;96947.28;;;9.81;100.00
28312;BME280;15572;48.810;9.148;2023-10-31T06:55:42;96958.47;;;9.85;100.00
28312;BME280;15572;48.810;9.148;2023-10-31T07:00:38;96959.91;;;9.87;100.00
28312;BME280;15572;48.810;9.148;2023-10-31T07:05:35;96950.81;;;9.82;100.00
28312;BME280;15572;48.810;9.148;2023-10-31T07:10:32;96966.78;;;9.83;100.00
28312;BME280;15572;48.810;9.148;2023-10-31T07:15:29;96970.72;;;9.87;100.00
28312;BME280;15572;48.810;9.148;2023-10-31T07:20:26;96976.47;;;9.97;100.00
28312;BME280;15572;48.810;9.148;2023-10-31T07:25:22;96975.75;;;10.08;100.00
28312;BME280;15572;48.810;9.148;2023-10-31T07:30:19;96982.03;;;10.02;100.00
28312;BME280;15572;48.810;9.148;2023-10-31T07:35:17;96978.03;;;10.05;100.00
28312;BME280;15572;48.810;9.148;2023-10-31T07:40:15;96979.31;;;10.02;100.00
28312;BME280;15572;48.810;9.148;2023-10-31T07:45:11;96997.13;;;10.10;100.00
28312;BME280;15572;48.810;9.148;2023-10-31T07:50:09;97000.59;;;10.24;100.00
28312;BME280;15572;48.810;9.148;2023-10-31T07:55:07;97002.41;;;10.30;100.00
28312;BME280;15572;48.810;9.148;2023-10-31T08:00:08;97008.84;;;10.29;100.00
28312;BME280;15572;48.810;9.148;2023-10-31T08:05:07;97009.00;;;10.34;100.00
28312;BME280;15572;48.810;9.148;2023-10-31T08:10:07;97008.06;;;10.46;100.00
28312;BME280;15572;48.810;9.148;2023-10-31T08:15:04;97016.09;;;10.53;100.00
28312;BME280;15572;48.810;9.148;2023-10-31T08:20:01;97014.50;;;10.64;100.00
28312;BME280;15572;48.810;9.148;2023-10-31T08:24:58;97026.47;;;10.74;100.00
28312;BME280;15572;48.810;9.148;2023-10-31T08:29:56;97027.59;;;10.85;100.00
28312;BME280;15572;48.810;9.148;2023-10-31T08:34:53;97035.06;;;10.89;100.00
28312;BME280;15572;48.810;9.148;2023-10-31T08:39:49;97042.41;;;11.01;100.00
28312;BME280;15572;48.810;9.148;2023-10-31T08:44:46;97057.16;;;11.05;100.00
28312;BME280;15572;48.810;9.148;2023-10-31T08:49:44;97057.06;;;11.11;100.00
28312;BME280;15572;48.810;9.148;2023-10-31T08:54:40;97056.56;;;11.21;100.00
28312;BME280;15572;48.810;9.148;2023-10-31T08:59:37;97051.84;;;11.28;100.00
28312;BME280;15572;48.810;9.148;2023-10-31T09:04:34;97041.16;;;11.33;100.00
28312;BME280;15572;48.810;9.148;2023-10-31T09:09:32;97048.38;;;11.39;100.00
28312;BME280;15572;48.810;9.148;2023-10-31T09:14:29;97052.97;;;11.38;100.00
28312;BME280;15572;48.810;9.148;2023-10-31T09:19:25;97058.91;;;11.47;100.00
28312;BME280;15572;48.810;9.148;2023-10-31T09:24:22;97061.69;;;11.70;100.00
28312;BME280;15572;48.810;9.148;2023-10-31T09:29:20;97068.50;;;11.79;100.00
28312;BME280;15572;48.810;9.148;2023-10-31T09:34:17;97064.66;;;11.69;100.00
28312;BME280;15572;48.810;9.148;2023-10-31T09:39:13;97060.72;;;11.65;100.00
28312;BME280;15572;48.810;9.148;2023-10-31T09:44:10;97070.66;;;11.71;100.00
28312;BME280;15572;48.810;9.148;2023-10-31T09:49:08;97062.94;;;11.74;100.00
28312;BME280;15572;48.810;9.148;2023-10-31T09:54:06;97061.44;;;11.90;100.00
28312;BME280;15572;48.810;9.148;2023-10-31T09:59:04;97055.31;;;11.95;100.00
28312;BME280;15572;48.810;9.148;2023-10-31T10:04:01;97056.72;;;11.97;100.00
28312;BME280;15572;48.810;9.148;2023-10-31T10:08:59;97053.19;;;11.97;100.00
28312;BME280;15572;48.810;9.148;2023-10-31T10:13:58;97050.38;;;12.03;100.00
28312;BME280;15572;48.810;9.148;2023-10-31T10:18:55;97049.22;;;12.11;100.00
28312;BME280;15572;48.810;9.148;2023-10-31T10:23:51;97063.13;;;12.14;100.00
28312;BME280;15572;48.810;9.148;2023-10-31T10:28:50;97066.22;;;12.18;100.00
28312;BME280;15572;48.810;9.148;2023-10-31T10:33:46;97068.69;;;12.19;100.00
28312;BME280;15572;48.810;9.148;2023-10-31T10:38:44;97077.78;;;12.25;100.00
28312;BME280;15572;48.810;9.148;2023-10-31T10:43:43;97085.69;;;12.15;100.00
28312;BME280;15572;48.810;9.148;2023-10-31T10:48:46;97081.75;;;11.99;100.00
28312;BME280;15572;48.810;9.148;2023-10-31T10:53:48;97083.44;;;12.12;100.00
28312;BME280;15572;48.810;9.148;2023-10-31T10:58:51;97087.09;;;12.17;100.00
28312;BME280;15572;48.810;9.148;2023-10-31T11:03:50;97085.56;;;12.21;100.00
28312;BME280;15572;48.810;9.148;2023-10-31T11:08:47;97087.59;;;12.26;100.00
28312;BME280;15572;48.810;9.148;2023-10-31T11:13:44;97090.91;;;12.51;100.00
28312;BME280;15572;48.810;9.148;2023-10-31T11:18:41;97086.09;;;12.53;100.00
28312;BME280;15572;48.810;9.148;2023-10-31T11:23:40;97087.50;;;12.68;100.00
28312;BME280;15572;48.810;9.148;2023-10-31T11:28:37;97082.53;;;12.88;100.00
28312;BME280;15572;48.810;9.148;2023-10-31T11:33:38;97095.75;;;12.84;100.00
28312;BME280;15572;48.810;9.148;2023-10-31T11:38:37;97092.59;;;12.87;100.00
28312;BME280;15572;48.810;9.148;2023-10-31T11:43:54;97097.19;;;12.87;100.00
28312;BME280;15572;48.810;9.148;2023-10-31T11:48:52;97093.88;;;12.85;100.00
28312;BME280;15572;48.810;9.148;2023-10-31T11:53:49;97107.44;;;12.85;100.00
28312;BME280;15572;48.810;9.148;2023-10-31T11:58:56;97098.69;;;12.94;100.00
28312;BME280;15572;48.810;9.148;2023-10-31T12:03:52;97103.06;;;12.84;100.00
28312;BME280;15572;48.810;9.148;2023-10-31T12:08:49;97109.81;;;12.81;100.00
28312;BME280;15572;48.810;9.148;2023-10-31T12:13:53;97113.59;;;12.80;100.00
28312;BME280;15572;48.810;9.148;2023-10-31T12:18:56;97116.66;;;12.84;100.00
28312;BME280;15572;48.810;9.148;2023-10-31T12:24:02;97119.03;;;12.92;100.00
28312;BME280;15572;48.810;9.148;2023-10-31T12:29:09;97125.16;;;12.99;100.00
28312;BME280;15572;48.810;9.148;2023-10-31T12:34:07;97119.59;;;13.05;99.22
28312;BME280;15572;48.810;9.148;2023-10-31T12:39:05;97125.78;;;13.13;97.93
28312;BME280;15572;48.810;9.148;2023-10-31T12:44:02;97129.75;;;13.10;97.49
28312;BME280;15572;48.810;9.148;2023-10-31T12:49:01;97130.25;;;13.07;98.69
28312;BME280;15572;48.810;9.148;2023-10-31T12:53:58;97135.91;;;12.94;100.00
28312;BME280;15572;48.810;9.148;2023-10-31T12:58:57;97132.72;;;12.85;98.39
28312;BME280;15572;48.810;9.148;2023-10-31T13:03:54;97142.28;;;12.76;98.80
28312;BME280;15572;48.810;9.148;2023-10-31T13:08:50;97132.13;;;12.95;97.22
28312;BME280;15572;48.810;9.148;2023-10-31T13:13:48;97145.38;;;13.15;96.08
28312;BME280;15572;48.810;9.148;2023-10-31T13:18:45;97145.63;;;13.25;93.88
28312;BME280;15572;48.810;9.148;2023-10-31T13:23:41;97141.38;;;13.17;94.15
28312;BME280;15572;48.810;9.148;2023-10-31T13:28:40;97156.09;;;13.09;94.61
28312;BME280;15572;48.810;9.148;2023-10-31T13:33:38;97159.19;;;13.01;95.29
28312;BME280;15572;48.810;9.148;2023-10-31T13:38:34;97163.91;;;13.06;95.14
28312;BME280;15572;48.810;9.148;2023-10-31T13:43:31;97167.59;;;13.12;96.07
28312;BME280;15572;48.810;9.148;2023-10-31T13:48:27;97174.66;;;13.01;97.93
28312;BME280;15572;48.810;9.148;2023-10-31T13:53:25;97178.75;;;13.03;98.50
28312;BME280;15572;48.810;9.148;2023-10-31T13:58:21;97184.19;;;13.03;99.32
28312;BME280;15572;48.810;9.148;2023-10-31T14:03:18;97185.63;;;13.06;99.93
28312;BME280;15572;48.810;9.148;2023-10-31T14:08:15;97183.63;;;13.01;100.00
28312;BME280;15572;48.810;9.148;2023-10-31T14:13:13;97186.69;;;13.05;100.00
28312;BME280;15572;48.810;9.148;2023-10-31T14:18:09;97194.94;;;13.10;100.00
28312;BME280;15572;48.810;9.148;2023-10-31T14:23:06;97196.63;;;13.11;100.00
28312;BME280;15572;48.810;9.148;2023-10-31T14:28:03;97199.00;;;13.07;100.00
28312;BME280;15572;48.810;9.148;2023-10-31T14:33:01;97199.44;;;13.04;100.00
28312;BME280;15572;48.810;9.148;2023-10-31T14:37:57;97208.06;;;13.01;98.43
28312;BME280;15572;48.810;9.148;2023-10-31T14:42:54;97212.34;;;12.97;100.00
28312;BME280;15572;48.810;9.148;2023-10-31T14:47:50;97225.31;;;12.95;100.00
28312;BME280;15572;48.810;9.148;2023-10-31T14:52:48;97223.50;;;12.78;100.00
28312;BME280;15572;48.810;9.148;2023-10-31T14:57:45;97233.94;;;12.51;100.00
28312;BME280;15572;48.810;9.148;2023-10-31T15:02:41;97231.31;;;12.33;100.00
28312;BME280;15572;48.810;9.148;2023-10-31T15:07:38;97241.63;;;12.24;100.00
28312;BME280;15572;48.810;9.148;2023-10-31T15:12:37;97238.84;;;12.01;100.00
28312;BME280;15572;48.810;9.148;2023-10-31T15:17:33;97249.25;;;11.86;100.00
28312;BME280;15572;48.810;9.148;2023-10-31T15:22:30;97256.25;;;11.75;100.00
28312;BME280;15572;48.810;9.148;2023-10-31T15:27:26;97267.72;;;11.70;100.00
28312;BME280;15572;48.810;9.148;2023-10-31T15:32:24;97269.56;;;11.58;100.00
28312;BME280;15572;48.810;9.148;2023-10-31T15:37:20;97278.84;;;11.44;100.00
28312;BME280;15572;48.810;9.148;2023-10-31T15:42:17;97288.50;;;11.40;100.00
28312;BME280;15572;48.810;9.148;2023-10-31T15:47:13;97291.66;;;11.37;100.00
28312;BME280;15572;48.810;9.148;2023-10-31T15:52:11;97297.09;;;11.37;100.00
28312;BME280;15572;48.810;9.148;2023-10-31T15:57:08;97292.50;;;11.37;100.00
28312;BME280;15572;48.810;9.148;2023-10-31T16:02:05;97302.50;;;11.37;100.00
28312;BME280;15572;48.810;9.148;2023-10-31T16:07:01;97311.84;;;11.41;100.00
28312;BME280;15572;48.810;9.148;2023-10-31T16:11:59;97321.84;;;11.40;100.00
28312;BME280;15572;48.810;9.148;2023-10-31T16:16:56;97320.63;;;11.36;100.00
28312;BME280;15572;48.810;9.148;2023-10-31T16:21:53;97331.31;;;11.31;100.00
28312;BME280;15572;48.810;9.148;2023-10-31T16:26:49;97337.81;;;11.24;100.00
28312;BME280;15572;48.810;9.148;2023-10-31T16:31:47;97349.03;;;11.27;100.00
28312;BME280;15572;48.810;9.148;2023-10-31T16:36:44;97349.44;;;11.31;100.00
28312;BME280;15572;48.810;9.148;2023-10-31T16:41:40;97365.91;;;11.29;100.00
28312;BME280;15572;48.810;9.148;2023-10-31T16:46:43;97368.00;;;11.27;100.00
28312;BME280;15572;48.810;9.148;2023-10-31T16:51:41;97376.13;;;11.27;100.00
28312;BME280;15572;48.810;9.148;2023-10-31T16:56:37;97383.25;;;11.22;100.00
28312;BME280;15572;48.810;9.148;2023-10-31T17:01:34;97395.16;;;11.21;100.00
28312;BME280;15572;48.810;9.148;2023-10-31T17:06:33;97393.72;;;11.18;100.00
28312;BME280;15572;48.810;9.148;2023-10-31T17:11:31;97404.16;;;11.15;100.00
28312;BME280;15572;48.810;9.148;2023-10-31T17:16:27;97404.59;;;11.12;100.00
28312;BME280;15572;48.810;9.148;2023-10-31T17:21:24;97418.41;;;11.04;100.00
28312;BME280;15572;48.810;9.148;2023-10-31T17:26:20;97419.91;;;11.00;100.00
28312;BME280;15572;48.810;9.148;2023-10-31T17:31:18;97430.56;;;10.94;100.00
28312;BME280;15572;48.810;9.148;2023-10-31T17:36:16;97431.00;;;10.85;100.00
28312;BME280;15572;48.810;9.148;2023-10-31T17:41:12;97432.31;;;10.76;100.00
28312;BME280;15572;48.810;9.148;2023-10-31T17:46:09;97440.88;;;10.66;100.00
28312;BME280;15572;48.810;9.148;2023-10-31T17:51:07;97453.00;;;10.57;100.00
28312;BME280;15572;48.810;9.148;2023-10-31T17:56:04;97450.97;;;10.46;100.00
28312;BME280;15572;48.810;9.148;2023-10-31T18:01:01;97473.47;;;10.40;100.00
28312;BME280;15572;48.810;9.148;2023-10-31T18:05:57;97478.47;;;10.36;100.00
28312;BME280;15572;48.810;9.148;2023-10-31T18:10:55;97488.47;;;10.36;100.00
28312;BME280;15572;48.810;9.148;2023-10-31T18:15:52;97497.19;;;10.38;100.00
28312;BME280;15572;48.810;9.148;2023-10-31T18:20:49;97503.03;;;10.41;100.00
28312;BME280;15572;48.810;9.148;2023-10-31T18:25:46;97509.03;;;10.43;100.00
28312;BME280;15572;48.810;9.148;2023-10-31T18:30:48;97504.47;;;10.44;100.00
28312;BME280;15572;48.810;9.148;2023-10-31T18:35:44;97519.44;;;10.46;100.00
28312;BME280;15572;48.810;9.148;2023-10-31T18:40:41;97518.38;;;10.54;100.00
28312;BME280;15572;48.810;9.148;2023-10-31T18:45:38;97525.00;;;10.58;100.00
28312;BME280;15572;48.810;9.148;2023-10-31T18:50:35;97528.34;;;10.67;100.00
28312;BME280;15572;48.810;9.148;2023-10-31T18:55:32;97532.28;;;10.64;100.00
28312;BME280;15572;48.810;9.148;2023-10-31T19:00:28;97536.66;;;10.65;100.00
28312;BME280;15572;48.810;9.148;2023-10-31T19:05:25;97528.34;;;10.67;100.00
28312;BME280;15572;48.810;9.148;2023-10-31T19:10:23;97533.75;;;10.67;100.00
28312;BME280;15572;48.810;9.148;2023-10-31T19:15:19;97535.81;;;10.71;100.00
28312;BME280;15572;48.810;9.148;2023-10-31T19:20:16;97536.84;;;10.70;100.00
28312;BME280;15572;48.810;9.148;2023-10-31T19:25:12;97541.88;;;10.73;100.00
28312;BME280;15572;48.810;9.148;2023-10-31T19:30:12;97547.28;;;10.73;100.00
28312;BME280;15572;48.810;9.148;2023-10-31T19:35:10;97549.34;;;10.71;100.00
28312;BME280;15572;48.810;9.148;2023-10-31T19:40:09;97555.41;;;10.73;100.00
28312;BME280;15572;48.810;9.148;2023-10-31T19:45:07;97561.41;;;10.75;100.00
28312;BME280;15572;48.810;9.148;2023-10-31T19:50:06;97564.31;;;10.80;100.00
28312;BME280;15572;48.810;9.148;2023-10-31T19:55:04;97556.81;;;10.82;100.00
28312;BME280;15572;48.810;9.148;2023-10-31T20:00:01;97564.50;;;10.85;100.00
28312;BME280;15572;48.810;9.148;2023-10-31T20:04:58;97559.09;;;10.85;100.00
28312;BME280;15572;48.810;9.148;2023-10-31T20:09:56;97568.69;;;10.88;100.00
28312;BME280;15572;48.810;9.148;2023-10-31T20:14:52;97583.03;;;10.88;100.00
28312;BME280;15572;48.810;9.148;2023-10-31T20:19:49;97574.69;;;10.90;100.00
28312;BME280;15572;48.810;9.148;2023-10-31T20:24:46;97569.88;;;10.98;100.00
28312;BME280;15572;48.810;9.148;2023-10-31T20:29:43;97564.28;;;11.00;100.00
28312;BME280;15572;48.810;9.148;2023-10-31T20:34:40;97577.38;;;11.03;100.00
28312;BME280;15572;48.810;9.148;2023-10-31T20:39:37;97576.13;;;10.99;100.00
28312;BME280;15572;48.810;9.148;2023-10-31T20:44:34;97571.38;;;10.94;100.00
28312;BME280;15572;48.810;9.148;2023-10-31T20:49:32;97577.00;;;10.93;100.00
28312;BME280;15572;48.810;9.148;2023-10-31T20:54:28;97585.38;;;10.78;100.00
28312;BME280;15572;48.810;9.148;2023-10-31T21:01:43;97585.38;;;10.65;100.00
28312;BME280;15572;48.810;9.148;2023-10-31T21:06:39;97594.78;;;10.56;100.00
28312;BME280;15572;48.810;9.148;2023-10-31T21:11:36;97595.22;;;10.46;100.00
28312;BME280;15572;48.810;9.148;2023-10-31T21:16:32;97586.91;;;10.41;100.00
28312;BME280;15572;48.810;9.148;2023-10-31T21:21:30;97580.22;;;10.37;100.00
28312;BME280;15572;48.810;9.148;2023-10-31T21:26:27;97586.25;;;10.33;100.00
28312;BME280;15572;48.810;9.148;2023-10-31T21:31:23;97568.16;;;10.27;100.00
28312;BME280;15572;48.810;9.148;2023-10-31T21:36:20;97572.97;;;10.25;100.00
28312;BME280;15572;48.810;9.148;2023-10-31T21:41:19;97575.03;;;10.23;100.00
28312;BME280;15572;48.810;9.148;2023-10-31T21:46:15;97571.50;;;10.22;100.00
28312;BME280;15572;48.810;9.148;2023-10-31T21:51:12;97572.34;;;10.16;100.00
28312;BME280;15572;48.810;9.148;2023-10-31T21:56:08;97571.91;;;10.12;100.00
28312;BME280;15572;48.810;9.148;2023-10-31T22:01:06;97579.41;;;10.04;100.00
28312;BME280;15572;48.810;9.148;2023-10-31T22:06:03;97576.47;;;9.99;100.00
28312;BME280;15572;48.810;9.148;2023-10-31T22:11:00;97586.84;;;9.95;100.00
28312;BME280;15572;48.810;9.148;2023-10-31T22:15:56;97579.19;;;9.92;100.00
28312;BME280;15572;48.810;9.148;2023-10-31T22:20:54;97572.50;;;9.88;100.00
28312;BME280;15572;48.810;9.148;2023-10-31T22:25:51;97588.31;;;9.85;100.00
28312;BME280;15572;48.810;9.148;2023-10-31T22:30:47;97583.53;;;9.80;100.00
28312;BME280;15572;48.810;9.148;2023-10-31T22:35:44;97588.53;;;9.77;100.00
28312;BME280;15572;48.810;9.148;2023-10-31T22:40:42;97587.47;;;9.78;100.00
28312;BME280;15572;48.810;9.148;2023-10-31T22:45:38;97589.94;;;9.72;100.00
28312;BME280;15572;48.810;9.148;2023-10-31T22:50:34;97583.50;;;9.73;100.00
28312;BME280;15572;48.810;9.148;2023-10-31T22:55:31;97574.56;;;9.73;100.00
28312;BME280;15572;48.810;9.148;2023-10-31T23:00:29;97579.56;;;9.69;100.00
28312;BME280;15572;48.810;9.148;2023-10-31T23:05:28;97573.31;;;9.69;100.00
28312;BME280;15572;48.810;9.148;2023-10-31T23:10:25;97560.22;;;9.72;100.00
28312;BME280;15572;48.810;9.148;2023-10-31T23:15:22;97570.22;;;9.79;100.00
28312;BME280;15572;48.810;9.148;2023-10-31T23:20:20;97557.97;;;9.83;100.00
28312;BME280;15572;48.810;9.148;2023-10-31T23:25:16;97565.44;;;9.87;100.00
28312;BME280;15572;48.810;9.148;2023-10-31T23:30:13;97560.44;;;9.91;100.00
28312;BME280;15572;48.810;9.148;2023-10-31T23:35:10;97560.66;;;9.96;100.00
28312;BME280;15572;48.810;9.148;2023-10-31T23:40:08;97556.91;;;9.97;100.00
28312;BME280;15572;48.810;9.148;2023-10-31T23:45:06;97559.63;;;9.97;100.00
28312;BME280;15572;48.810;9.148;2023-10-31T23:50:02;97555.66;;;9.99;100.00
28312;BME280;15572;48.810;9.148;2023-10-31T23:54:59;97553.78;;;10.00;100.00
28312;BME280;15572;48.810;9.148;2023-10-31T23:59:57;97548.81;;;10.03;100.00
